CheckWX is a tool to help pilots better visualize weather data.  It is not intended as a substitute for an official pre-flight weather briefing.

18:00:08 UTC

KJZP METAR
Pickens County Airport
Jasper, Georgia, USA
Current

45 mins ago

KJZP 251715Z AUTO 18008G15KT 10SM OVC016 21/16 A3016 RMK AO2 T02050161
Observed
Aug-25 @ 17:15 UTC
Wind
  • 180° at 8 KTS
  • Gusting to 15 KTS
Visibility
10 SM
Flight Rules
MVFR
Cloud Levels
  • Overcast at 1,600' AGL
Temperature
21°C / 70°F
Dewpoint
16°C / 61°F
Humidity
73%
Altimeter
30.16" Hg
Pressure
1021.32 hPa
Previous

1 hour ago

KJZP 251655Z AUTO 17007KT 10SM OVC016 20/16 A3017 RMK AO2 T02020160
Observed
Aug-25 @ 16:55 UTC
Wind
  • 170° at 7 KTS
Visibility
10 SM
Flight Rules
MVFR
Cloud Levels
  • Overcast at 1,600' AGL
Temperature
20°C / 68°F
Dewpoint
16°C / 61°F
Humidity
78%
Altimeter
30.17" Hg
Pressure
1021.72 hPa
Previous

1 hour ago

KJZP 251635Z AUTO 17010G16KT 10SM BKN016 OVC024 20/16 A3017 RMK AO2 T01990160
Observed
Aug-25 @ 16:35 UTC
Wind
  • 170° at 10 KTS
  • Gusting to 16 KTS
Visibility
10 SM
Flight Rules
MVFR
Cloud Levels
  • Broken at 1,600' AGL
  • Overcast at 2,400' AGL
Temperature
20°C / 68°F
Dewpoint
16°C / 61°F
Humidity
78%
Altimeter
30.17" Hg
Pressure
1021.72 hPa